sensor_id;sensor_type;location;lat;lon;timestamp;P1;durP1;ratioP1;P2;durP2;ratioP2
12871;SDS011;6504;53.766;9.626;2023-03-01T00:01:41;12.47;;;11.20;;
12871;SDS011;6504;53.766;9.626;2023-03-01T00:04:11;13.03;;;11.50;;
12871;SDS011;6504;53.766;9.626;2023-03-01T00:06:39;12.87;;;11.57;;
12871;SDS011;6504;53.766;9.626;2023-03-01T00:09:07;12.47;;;11.20;;
12871;SDS011;6504;53.766;9.626;2023-03-01T00:11:34;12.70;;;11.60;;
12871;SDS011;6504;53.766;9.626;2023-03-01T00:14:03;13.03;;;11.30;;
12871;SDS011;6504;53.766;9.626;2023-03-01T00:16:33;11.93;;;10.63;;
12871;SDS011;6504;53.766;9.626;2023-03-01T00:19:02;12.47;;;11.17;;
12871;SDS011;6504;53.766;9.626;2023-03-01T00:21:31;12.20;;;10.97;;
12871;SDS011;6504;53.766;9.626;2023-03-01T00:24:01;11.60;;;10.40;;
12871;SDS011;6504;53.766;9.626;2023-03-01T00:26:30;11.50;;;10.30;;
12871;SDS011;6504;53.766;9.626;2023-03-01T00:28:58;11.47;;;10.33;;
12871;SDS011;6504;53.766;9.626;2023-03-01T00:31:27;11.93;;;10.37;;
12871;SDS011;6504;53.766;9.626;2023-03-01T00:33:57;10.40;;;9.30;;
12871;SDS011;6504;53.766;9.626;2023-03-01T00:36:27;10.80;;;9.70;;
12871;SDS011;6504;53.766;9.626;2023-03-01T00:38:58;10.20;;;9.30;;
12871;SDS011;6504;53.766;9.626;2023-03-01T00:41:27;11.57;;;10.37;;
12871;SDS011;6504;53.766;9.626;2023-03-01T00:43:55;13.43;;;10.80;;
12871;SDS011;6504;53.766;9.626;2023-03-01T00:46:24;13.67;;;12.13;;
12871;SDS011;6504;53.766;9.626;2023-03-01T00:48:54;12.17;;;10.87;;
12871;SDS011;6504;53.766;9.626;2023-03-01T00:51:23;12.90;;;11.70;;
12871;SDS011;6504;53.766;9.626;2023-03-01T00:53:53;12.23;;;10.63;;
12871;SDS011;6504;53.766;9.626;2023-03-01T00:56:24;12.97;;;11.67;;
12871;SDS011;6504;53.766;9.626;2023-03-01T00:58:52;13.83;;;11.57;;
12871;SDS011;6504;53.766;9.626;2023-03-01T01:01:21;13.40;;;12.10;;
12871;SDS011;6504;53.766;9.626;2023-03-01T01:03:51;13.20;;;11.47;;
12871;SDS011;6504;53.766;9.626;2023-03-01T01:06:21;12.80;;;11.60;;
12871;SDS011;6504;53.766;9.626;2023-03-01T01:08:50;12.53;;;11.23;;
12871;SDS011;6504;53.766;9.626;2023-03-01T01:11:19;11.07;;;9.93;;
12871;SDS011;6504;53.766;9.626;2023-03-01T01:13:49;12.40;;;11.07;;
12871;SDS011;6504;53.766;9.626;2023-03-01T01:16:19;12.17;;;10.87;;
12871;SDS011;6504;53.766;9.626;2023-03-01T01:18:48;11.13;;;10.03;;
12871;SDS011;6504;53.766;9.626;2023-03-01T01:21:17;11.70;;;10.50;;
12871;SDS011;6504;53.766;9.626;2023-03-01T01:23:47;11.03;;;10.03;;
12871;SDS011;6504;53.766;9.626;2023-03-01T01:26:16;11.57;;;10.37;;
12871;SDS011;6504;53.766;9.626;2023-03-01T01:28:46;12.27;;;11.03;;
12871;SDS011;6504;53.766;9.626;2023-03-01T01:31:15;13.07;;;11.73;;
12871;SDS011;6504;53.766;9.626;2023-03-01T01:33:44;12.90;;;11.50;;
12871;SDS011;6504;53.766;9.626;2023-03-01T01:36:12;13.73;;;12.03;;
12871;SDS011;6504;53.766;9.626;2023-03-01T01:38:40;13.57;;;12.17;;
12871;SDS011;6504;53.766;9.626;2023-03-01T01:41:09;13.10;;;11.90;;
12871;SDS011;6504;53.766;9.626;2023-03-01T01:43:39;15.77;;;12.10;;
12871;SDS011;6504;53.766;9.626;2023-03-01T01:46:12;13.53;;;12.23;;
12871;SDS011;6504;53.766;9.626;2023-03-01T01:48:48;13.70;;;12.30;;
12871;SDS011;6504;53.766;9.626;2023-03-01T01:51:21;13.00;;;11.70;;
12871;SDS011;6504;53.766;9.626;2023-03-01T01:53:53;13.20;;;11.83;;
12871;SDS011;6504;53.766;9.626;2023-03-01T01:56:23;13.43;;;12.03;;
12871;SDS011;6504;53.766;9.626;2023-03-01T01:58:53;13.00;;;11.23;;
12871;SDS011;6504;53.766;9.626;2023-03-01T02:01:24;12.80;;;11.60;;
12871;SDS011;6504;53.766;9.626;2023-03-01T02:03:52;13.07;;;11.90;;
12871;SDS011;6504;53.766;9.626;2023-03-01T02:06:21;13.53;;;12.20;;
12871;SDS011;6504;53.766;9.626;2023-03-01T02:08:57;13.13;;;11.83;;
12871;SDS011;6504;53.766;9.626;2023-03-01T02:11:34;12.67;;;11.37;;
12871;SDS011;6504;53.766;9.626;2023-03-01T02:14:04;15.23;;;12.50;;
12871;SDS011;6504;53.766;9.626;2023-03-01T02:16:33;12.57;;;11.37;;
12871;SDS011;6504;53.766;9.626;2023-03-01T02:19:02;13.80;;;12.27;;
12871;SDS011;6504;53.766;9.626;2023-03-01T02:21:36;14.60;;;12.17;;
12871;SDS011;6504;53.766;9.626;2023-03-01T02:35:33;14.23;;;12.30;;
12871;SDS011;6504;53.766;9.626;2023-03-01T02:38:06;13.33;;;12.00;;
12871;SDS011;6504;53.766;9.626;2023-03-01T02:40:35;12.30;;;11.00;;
12871;SDS011;6504;53.766;9.626;2023-03-01T02:43:07;14.17;;;12.03;;
12871;SDS011;6504;53.766;9.626;2023-03-01T02:45:37;12.40;;;11.13;;
12871;SDS011;6504;53.766;9.626;2023-03-01T02:48:15;13.40;;;12.00;;
12871;SDS011;6504;53.766;9.626;2023-03-01T02:50:47;14.00;;;12.47;;
12871;SDS011;6504;53.766;9.626;2023-03-01T02:53:27;12.70;;;11.47;;
12871;SDS011;6504;53.766;9.626;2023-03-01T02:56:02;12.57;;;11.27;;
12871;SDS011;6504;53.766;9.626;2023-03-01T02:58:30;13.57;;;12.03;;
12871;SDS011;6504;53.766;9.626;2023-03-01T03:01:06;12.50;;;11.30;;
12871;SDS011;6504;53.766;9.626;2023-03-01T03:03:36;12.17;;;10.97;;
12871;SDS011;6504;53.766;9.626;2023-03-01T03:06:05;13.13;;;11.83;;
12871;SDS011;6504;53.766;9.626;2023-03-01T03:08:33;13.17;;;11.83;;
12871;SDS011;6504;53.766;9.626;2023-03-01T03:11:02;13.77;;;12.37;;
12871;SDS011;6504;53.766;9.626;2023-03-01T03:13:30;14.83;;;12.43;;
12871;SDS011;6504;53.766;9.626;2023-03-01T03:15:58;13.37;;;11.70;;
12871;SDS011;6504;53.766;9.626;2023-03-01T03:18:26;13.90;;;12.07;;
12871;SDS011;6504;53.766;9.626;2023-03-01T03:20:54;13.37;;;11.97;;
12871;SDS011;6504;53.766;9.626;2023-03-01T03:23:25;13.27;;;11.97;;
12871;SDS011;6504;53.766;9.626;2023-03-01T03:25:53;12.60;;;11.40;;
12871;SDS011;6504;53.766;9.626;2023-03-01T03:28:21;12.27;;;11.07;;
12871;SDS011;6504;53.766;9.626;2023-03-01T03:30:49;12.73;;;11.50;;
12871;SDS011;6504;53.766;9.626;2023-03-01T03:33:17;12.43;;;11.20;;
12871;SDS011;6504;53.766;9.626;2023-03-01T03:35:45;12.53;;;11.33;;
12871;SDS011;6504;53.766;9.626;2023-03-01T03:38:15;12.50;;;11.23;;
12871;SDS011;6504;53.766;9.626;2023-03-01T03:40:47;12.70;;;11.40;;
12871;SDS011;6504;53.766;9.626;2023-03-01T03:43:17;13.07;;;11.77;;
12871;SDS011;6504;53.766;9.626;2023-03-01T03:45:47;13.03;;;11.70;;
12871;SDS011;6504;53.766;9.626;2023-03-01T03:48:16;12.07;;;10.70;;
12871;SDS011;6504;53.766;9.626;2023-03-01T03:50:47;12.47;;;11.23;;
12871;SDS011;6504;53.766;9.626;2023-03-01T03:53:16;12.53;;;11.23;;
12871;SDS011;6504;53.766;9.626;2023-03-01T03:55:46;12.50;;;11.40;;
12871;SDS011;6504;53.766;9.626;2023-03-01T03:58:16;12.17;;;11.00;;
12871;SDS011;6504;53.766;9.626;2023-03-01T04:00:46;13.13;;;11.93;;
12871;SDS011;6504;53.766;9.626;2023-03-01T04:03:17;12.60;;;11.17;;
12871;SDS011;6504;53.766;9.626;2023-03-01T04:05:46;13.00;;;11.70;;
12871;SDS011;6504;53.766;9.626;2023-03-01T04:08:16;12.20;;;10.93;;
12871;SDS011;6504;53.766;9.626;2023-03-01T04:10:48;12.20;;;10.83;;
12871;SDS011;6504;53.766;9.626;2023-03-01T04:13:18;12.67;;;11.33;;
12871;SDS011;6504;53.766;9.626;2023-03-01T04:15:48;12.23;;;10.97;;
12871;SDS011;6504;53.766;9.626;2023-03-01T04:18:17;12.57;;;11.37;;
12871;SDS011;6504;53.766;9.626;2023-03-01T04:20:46;10.97;;;9.93;;
12871;SDS011;6504;53.766;9.626;2023-03-01T04:23:16;12.87;;;11.57;;
12871;SDS011;6504;53.766;9.626;2023-03-01T04:25:49;12.03;;;10.87;;
12871;SDS011;6504;53.766;9.626;2023-03-01T04:28:21;11.67;;;10.50;;
12871;SDS011;6504;53.766;9.626;2023-03-01T04:30:51;12.13;;;10.97;;
12871;SDS011;6504;53.766;9.626;2023-03-01T04:33:20;13.03;;;11.27;;
12871;SDS011;6504;53.766;9.626;2023-03-01T04:35:48;13.30;;;11.50;;
12871;SDS011;6504;53.766;9.626;2023-03-01T04:38:17;13.40;;;11.67;;
12871;SDS011;6504;53.766;9.626;2023-03-01T04:40:47;12.50;;;11.27;;
12871;SDS011;6504;53.766;9.626;2023-03-01T04:43:15;13.50;;;12.10;;
12871;SDS011;6504;53.766;9.626;2023-03-01T04:45:43;12.70;;;11.40;;
12871;SDS011;6504;53.766;9.626;2023-03-01T04:48:11;13.23;;;11.23;;
12871;SDS011;6504;53.766;9.626;2023-03-01T04:50:39;14.33;;;12.13;;
12871;SDS011;6504;53.766;9.626;2023-03-01T04:53:07;12.87;;;11.60;;
12871;SDS011;6504;53.766;9.626;2023-03-01T04:55:35;12.73;;;11.47;;
12871;SDS011;6504;53.766;9.626;2023-03-01T04:58:05;12.83;;;11.53;;
12871;SDS011;6504;53.766;9.626;2023-03-01T05:00:33;13.40;;;12.07;;
12871;SDS011;6504;53.766;9.626;2023-03-01T05:03:01;12.53;;;11.33;;
12871;SDS011;6504;53.766;9.626;2023-03-01T05:05:30;13.50;;;12.17;;
12871;SDS011;6504;53.766;9.626;2023-03-01T05:08:00;15.67;;;14.07;;
12871;SDS011;6504;53.766;9.626;2023-03-01T05:10:31;14.80;;;13.30;;
12871;SDS011;6504;53.766;9.626;2023-03-01T05:13:01;16.00;;;14.40;;
12871;SDS011;6504;53.766;9.626;2023-03-01T05:15:31;16.70;;;15.10;;
12871;SDS011;6504;53.766;9.626;2023-03-01T05:18:00;16.70;;;14.90;;
12871;SDS011;6504;53.766;9.626;2023-03-01T05:20:29;15.80;;;13.37;;
12871;SDS011;6504;53.766;9.626;2023-03-01T05:22:58;15.23;;;13.60;;
12871;SDS011;6504;53.766;9.626;2023-03-01T05:25:32;15.07;;;12.57;;
12871;SDS011;6504;53.766;9.626;2023-03-01T05:28:01;16.00;;;13.97;;
12871;SDS011;6504;53.766;9.626;2023-03-01T05:30:32;15.83;;;13.23;;
12871;SDS011;6504;53.766;9.626;2023-03-01T05:33:01;16.83;;;14.40;;
12871;SDS011;6504;53.766;9.626;2023-03-01T05:35:31;16.87;;;13.63;;
12871;SDS011;6504;53.766;9.626;2023-03-01T05:38:00;16.60;;;14.37;;
12871;SDS011;6504;53.766;9.626;2023-03-01T05:40:28;17.47;;;14.10;;
12871;SDS011;6504;53.766;9.626;2023-03-01T05:42:56;16.27;;;14.00;;
12871;SDS011;6504;53.766;9.626;2023-03-01T05:45:25;15.83;;;14.13;;
12871;SDS011;6504;53.766;9.626;2023-03-01T05:47:55;14.57;;;13.07;;
12871;SDS011;6504;53.766;9.626;2023-03-01T05:50:24;17.17;;;13.50;;
12871;SDS011;6504;53.766;9.626;2023-03-01T05:52:56;14.20;;;12.80;;
12871;SDS011;6504;53.766;9.626;2023-03-01T05:55:27;14.80;;;13.23;;
12871;SDS011;6504;53.766;9.626;2023-03-01T05:57:57;13.93;;;12.53;;
12871;SDS011;6504;53.766;9.626;2023-03-01T06:00:27;13.63;;;12.33;;
12871;SDS011;6504;53.766;9.626;2023-03-01T06:02:58;18.87;;;14.80;;
12871;SDS011;6504;53.766;9.626;2023-03-01T06:05:27;29.73;;;20.63;;
12871;SDS011;6504;53.766;9.626;2023-03-01T06:07:58;21.37;;;16.73;;
12871;SDS011;6504;53.766;9.626;2023-03-01T06:10:27;18.10;;;15.83;;
12871;SDS011;6504;53.766;9.626;2023-03-01T06:12:55;18.53;;;16.57;;
12871;SDS011;6504;53.766;9.626;2023-03-01T06:15:24;17.93;;;16.03;;
12871;SDS011;6504;53.766;9.626;2023-03-01T06:17:53;16.17;;;14.47;;
12871;SDS011;6504;53.766;9.626;2023-03-01T06:20:27;15.60;;;14.10;;
12871;SDS011;6504;53.766;9.626;2023-03-01T06:22:56;16.67;;;14.90;;
12871;SDS011;6504;53.766;9.626;2023-03-01T06:25:24;17.13;;;15.33;;
12871;SDS011;6504;53.766;9.626;2023-03-01T06:27:54;21.37;;;17.90;;
12871;SDS011;6504;53.766;9.626;2023-03-01T06:30:23;18.77;;;16.37;;
12871;SDS011;6504;53.766;9.626;2023-03-01T06:32:52;18.97;;;15.43;;
12871;SDS011;6504;53.766;9.626;2023-03-01T06:35:29;19.00;;;16.10;;
12871;SDS011;6504;53.766;9.626;2023-03-01T06:37:58;19.93;;;15.80;;
12871;SDS011;6504;53.766;9.626;2023-03-01T06:40:27;19.67;;;17.50;;
12871;SDS011;6504;53.766;9.626;2023-03-01T06:42:55;19.10;;;16.77;;
12871;SDS011;6504;53.766;9.626;2023-03-01T06:45:23;20.50;;;16.70;;
12871;SDS011;6504;53.766;9.626;2023-03-01T06:47:51;16.90;;;15.13;;
12871;SDS011;6504;53.766;9.626;2023-03-01T06:50:19;16.77;;;12.93;;
12871;SDS011;6504;53.766;9.626;2023-03-01T06:52:51;15.40;;;11.70;;
12871;SDS011;6504;53.766;9.626;2023-03-01T06:55:23;12.67;;;11.37;;
12871;SDS011;6504;53.766;9.626;2023-03-01T06:57:53;12.70;;;11.40;;
12871;SDS011;6504;53.766;9.626;2023-03-01T07:00:23;13.10;;;11.70;;
12871;SDS011;6504;53.766;9.626;2023-03-01T07:02:52;12.27;;;11.03;;
12871;SDS011;6504;53.766;9.626;2023-03-01T07:05:20;13.80;;;11.50;;
12871;SDS011;6504;53.766;9.626;2023-03-01T07:07:50;13.37;;;11.40;;
12871;SDS011;6504;53.766;9.626;2023-03-01T07:10:18;12.90;;;11.50;;
12871;SDS011;6504;53.766;9.626;2023-03-01T07:12:46;13.87;;;11.50;;
12871;SDS011;6504;53.766;9.626;2023-03-01T07:15:14;12.50;;;11.17;;
12871;SDS011;6504;53.766;9.626;2023-03-01T07:17:42;12.40;;;10.83;;
12871;SDS011;6504;53.766;9.626;2023-03-01T07:20:13;12.20;;;10.90;;
12871;SDS011;6504;53.766;9.626;2023-03-01T07:22:42;12.07;;;10.87;;
12871;SDS011;6504;53.766;9.626;2023-03-01T07:25:11;12.47;;;11.03;;
12871;SDS011;6504;53.766;9.626;2023-03-01T07:27:40;12.73;;;11.00;;
12871;SDS011;6504;53.766;9.626;2023-03-01T07:30:09;11.97;;;10.77;;
12871;SDS011;6504;53.766;9.626;2023-03-01T07:32:37;12.83;;;11.43;;
12871;SDS011;6504;53.766;9.626;2023-03-01T07:35:06;11.70;;;10.50;;
12871;SDS011;6504;53.766;9.626;2023-03-01T07:37:41;13.10;;;11.13;;
12871;SDS011;6504;53.766;9.626;2023-03-01T07:40:12;12.07;;;10.43;;
12871;SDS011;6504;53.766;9.626;2023-03-01T07:42:40;11.67;;;10.33;;
12871;SDS011;6504;53.766;9.626;2023-03-01T07:45:08;13.23;;;11.63;;
12871;SDS011;6504;53.766;9.626;2023-03-01T07:47:37;13.47;;;12.07;;
12871;SDS011;6504;53.766;9.626;2023-03-01T07:50:05;13.73;;;12.27;;
12871;SDS011;6504;53.766;9.626;2023-03-01T07:52:34;15.77;;;13.33;;
12871;SDS011;6504;53.766;9.626;2023-03-01T07:55:02;21.57;;;17.43;;
12871;SDS011;6504;53.766;9.626;2023-03-01T07:57:32;17.13;;;14.40;;
12871;SDS011;6504;53.766;9.626;2023-03-01T08:00:00;15.00;;;13.40;;
12871;SDS011;6504;53.766;9.626;2023-03-01T08:02:29;17.87;;;15.77;;
12871;SDS011;6504;53.766;9.626;2023-03-01T08:04:59;19.87;;;16.87;;
12871;SDS011;6504;53.766;9.626;2023-03-01T08:07:27;16.93;;;14.83;;
12871;SDS011;6504;53.766;9.626;2023-03-01T08:09:56;15.37;;;13.53;;
12871;SDS011;6504;53.766;9.626;2023-03-01T08:12:24;15.93;;;13.63;;
12871;SDS011;6504;53.766;9.626;2023-03-01T08:14:55;18.60;;;13.90;;
12871;SDS011;6504;53.766;9.626;2023-03-01T08:17:25;15.63;;;13.17;;
12871;SDS011;6504;53.766;9.626;2023-03-01T08:19:53;17.73;;;12.63;;
12871;SDS011;6504;53.766;9.626;2023-03-01T08:22:22;13.30;;;11.37;;
12871;SDS011;6504;53.766;9.626;2023-03-01T08:24:51;13.33;;;10.40;;
12871;SDS011;6504;53.766;9.626;2023-03-01T08:27:22;11.53;;;9.40;;
12871;SDS011;6504;53.766;9.626;2023-03-01T08:29:51;10.30;;;8.73;;
12871;SDS011;6504;53.766;9.626;2023-03-01T08:32:20;9.60;;;7.90;;
12871;SDS011;6504;53.766;9.626;2023-03-01T08:34:49;11.00;;;8.20;;
12871;SDS011;6504;53.766;9.626;2023-03-01T08:37:17;10.00;;;7.63;;
12871;SDS011;6504;53.766;9.626;2023-03-01T08:39:45;11.07;;;8.20;;
12871;SDS011;6504;53.766;9.626;2023-03-01T08:42:14;10.40;;;7.60;;
12871;SDS011;6504;53.766;9.626;2023-03-01T08:44:42;10.43;;;7.97;;
12871;SDS011;6504;53.766;9.626;2023-03-01T08:47:12;13.93;;;9.47;;
12871;SDS011;6504;53.766;9.626;2023-03-01T08:49:42;14.77;;;10.03;;
12871;SDS011;6504;53.766;9.626;2023-03-01T08:52:10;15.70;;;10.53;;
12871;SDS011;6504;53.766;9.626;2023-03-01T08:54:38;17.23;;;11.03;;
12871;SDS011;6504;53.766;9.626;2023-03-01T08:57:12;16.37;;;10.00;;
12871;SDS011;6504;53.766;9.626;2023-03-01T08:59:40;19.23;;;12.03;;
12871;SDS011;6504;53.766;9.626;2023-03-01T09:02:11;21.83;;;13.33;;
12871;SDS011;6504;53.766;9.626;2023-03-01T09:04:40;18.80;;;11.77;;
12871;SDS011;6504;53.766;9.626;2023-03-01T09:07:10;19.03;;;11.57;;
12871;SDS011;6504;53.766;9.626;2023-03-01T09:09:38;16.77;;;11.27;;
12871;SDS011;6504;53.766;9.626;2023-03-01T09:12:06;18.63;;;12.30;;
12871;SDS011;6504;53.766;9.626;2023-03-01T09:14:34;21.30;;;10.37;;
12871;SDS011;6504;53.766;9.626;2023-03-01T09:17:04;16.03;;;10.70;;
12871;SDS011;6504;53.766;9.626;2023-03-01T09:19:32;17.83;;;9.37;;
12871;SDS011;6504;53.766;9.626;2023-03-01T09:22:00;16.17;;;10.30;;
12871;SDS011;6504;53.766;9.626;2023-03-01T09:24:31;17.03;;;10.13;;
12871;SDS011;6504;53.766;9.626;2023-03-01T09:27:00;15.07;;;9.70;;
12871;SDS011;6504;53.766;9.626;2023-03-01T09:29:29;15.40;;;9.77;;
12871;SDS011;6504;53.766;9.626;2023-03-01T09:31:57;12.93;;;8.50;;
12871;SDS011;6504;53.766;9.626;2023-03-01T09:34:25;12.97;;;9.57;;
12871;SDS011;6504;53.766;9.626;2023-03-01T09:36:53;13.13;;;9.27;;
12871;SDS011;6504;53.766;9.626;2023-03-01T09:39:21;13.60;;;9.17;;
12871;SDS011;6504;53.766;9.626;2023-03-01T09:41:53;14.57;;;9.37;;
12871;SDS011;6504;53.766;9.626;2023-03-01T09:44:27;13.20;;;9.77;;
12871;SDS011;6504;53.766;9.626;2023-03-01T09:47:00;12.13;;;8.87;;
12871;SDS011;6504;53.766;9.626;2023-03-01T09:49:31;14.47;;;10.30;;
12871;SDS011;6504;53.766;9.626;2023-03-01T09:52:03;14.17;;;9.43;;
12871;SDS011;6504;53.766;9.626;2023-03-01T09:54:39;12.93;;;9.37;;
12871;SDS011;6504;53.766;9.626;2023-03-01T09:57:14;13.63;;;9.50;;
12871;SDS011;6504;53.766;9.626;2023-03-01T10:02:41;14.17;;;9.87;;
12871;SDS011;6504;53.766;9.626;2023-03-01T10:05:14;17.30;;;11.13;;
12871;SDS011;6504;53.766;9.626;2023-03-01T10:08:02;16.07;;;10.70;;
12871;SDS011;6504;53.766;9.626;2023-03-01T10:10:47;17.57;;;11.23;;
12871;SDS011;6504;53.766;9.626;2023-03-01T10:13:19;15.53;;;11.03;;
12871;SDS011;6504;53.766;9.626;2023-03-01T10:15:52;16.13;;;11.63;;
12871;SDS011;6504;53.766;9.626;2023-03-01T10:18:24;16.40;;;12.43;;
12871;SDS011;6504;53.766;9.626;2023-03-01T10:20:55;16.13;;;12.50;;
12871;SDS011;6504;53.766;9.626;2023-03-01T10:23:27;15.63;;;11.33;;
12871;SDS011;6504;53.766;9.626;2023-03-01T10:26:07;23.60;;;14.97;;
12871;SDS011;6504;53.766;9.626;2023-03-01T10:28:47;22.80;;;15.27;;
12871;SDS011;6504;53.766;9.626;2023-03-01T10:31:24;27.60;;;18.13;;
12871;SDS011;6504;53.766;9.626;2023-03-01T10:33:56;28.83;;;19.03;;
12871;SDS011;6504;53.766;9.626;2023-03-01T10:36:25;27.77;;;18.57;;
12871;SDS011;6504;53.766;9.626;2023-03-01T10:38:54;27.03;;;18.50;;
12871;SDS011;6504;53.766;9.626;2023-03-01T10:41:24;28.87;;;18.70;;
12871;SDS011;6504;53.766;9.626;2023-03-01T10:43:56;24.60;;;16.70;;
12871;SDS011;6504;53.766;9.626;2023-03-01T10:46:27;33.40;;;22.80;;
12871;SDS011;6504;53.766;9.626;2023-03-01T10:49:05;33.53;;;23.70;;
12871;SDS011;6504;53.766;9.626;2023-03-01T10:51:39;36.53;;;23.63;;
12871;SDS011;6504;53.766;9.626;2023-03-01T10:54:15;30.07;;;21.40;;
12871;SDS011;6504;53.766;9.626;2023-03-01T10:56:45;35.60;;;22.67;;
12871;SDS011;6504;53.766;9.626;2023-03-01T11:02:12;32.90;;;21.90;;
12871;SDS011;6504;53.766;9.626;2023-03-01T11:04:57;32.97;;;21.27;;
12871;SDS011;6504;53.766;9.626;2023-03-01T11:07:27;35.03;;;23.53;;
12871;SDS011;6504;53.766;9.626;2023-03-01T11:09:55;29.50;;;21.33;;
12871;SDS011;6504;53.766;9.626;2023-03-01T11:12:24;31.83;;;21.00;;
12871;SDS011;6504;53.766;9.626;2023-03-01T11:14:56;29.90;;;20.03;;
12871;SDS011;6504;53.766;9.626;2023-03-01T11:17:27;31.37;;;22.03;;
12871;SDS011;6504;53.766;9.626;2023-03-01T11:20:04;31.53;;;21.10;;
12871;SDS011;6504;53.766;9.626;2023-03-01T11:22:45;29.60;;;20.67;;
12871;SDS011;6504;53.766;9.626;2023-03-01T11:25:15;27.20;;;19.13;;
12871;SDS011;6504;53.766;9.626;2023-03-01T11:27:44;25.83;;;18.27;;
12871;SDS011;6504;53.766;9.626;2023-03-01T11:30:18;26.47;;;17.77;;
12871;SDS011;6504;53.766;9.626;2023-03-01T11:33:03;22.63;;;16.00;;
12871;SDS011;6504;53.766;9.626;2023-03-01T11:35:41;21.57;;;16.57;;
12871;SDS011;6504;53.766;9.626;2023-03-01T11:38:16;20.13;;;16.17;;
12871;SDS011;6504;53.766;9.626;2023-03-01T11:40:50;20.63;;;16.53;;
12871;SDS011;6504;53.766;9.626;2023-03-01T11:43:28;21.93;;;16.60;;
12871;SDS011;6504;53.766;9.626;2023-03-01T11:46:25;25.43;;;17.97;;
12871;SDS011;6504;53.766;9.626;2023-03-01T11:49:29;25.47;;;18.47;;
12871;SDS011;6504;53.766;9.626;2023-03-01T11:52:08;23.70;;;16.77;;
12871;SDS011;6504;53.766;9.626;2023-03-01T11:54:50;21.30;;;15.90;;
12871;SDS011;6504;53.766;9.626;2023-03-01T11:57:34;20.73;;;14.77;;
12871;SDS011;6504;53.766;9.626;2023-03-01T12:00:15;19.63;;;14.97;;
12871;SDS011;6504;53.766;9.626;2023-03-01T12:09:06;18.90;;;14.90;;
12871;SDS011;6504;53.766;9.626;2023-03-01T12:11:51;21.63;;;14.50;;
12871;SDS011;6504;53.766;9.626;2023-03-01T12:14:45;22.97;;;16.30;;
12871;SDS011;6504;53.766;9.626;2023-03-01T12:17:29;19.30;;;15.00;;
12871;SDS011;6504;53.766;9.626;2023-03-01T12:20:22;19.60;;;15.57;;
12871;SDS011;6504;53.766;9.626;2023-03-01T12:25:54;21.47;;;14.23;;
12871;SDS011;6504;53.766;9.626;2023-03-01T12:28:32;18.97;;;14.73;;
12871;SDS011;6504;53.766;9.626;2023-03-01T12:31:32;18.87;;;14.10;;
12871;SDS011;6504;53.766;9.626;2023-03-01T12:34:16;20.57;;;13.90;;
12871;SDS011;6504;53.766;9.626;2023-03-01T12:37:10;16.70;;;13.30;;
12871;SDS011;6504;53.766;9.626;2023-03-01T12:39:51;19.93;;;14.37;;
12871;SDS011;6504;53.766;9.626;2023-03-01T12:42:40;20.13;;;14.47;;
12871;SDS011;6504;53.766;9.626;2023-03-01T12:45:25;17.53;;;13.10;;
12871;SDS011;6504;53.766;9.626;2023-03-01T12:48:06;20.97;;;15.10;;
12871;SDS011;6504;53.766;9.626;2023-03-01T12:50:46;22.00;;;15.93;;
12871;SDS011;6504;53.766;9.626;2023-03-01T12:53:21;19.80;;;14.57;;
12871;SDS011;6504;53.766;9.626;2023-03-01T12:55:51;20.87;;;15.27;;
12871;SDS011;6504;53.766;9.626;2023-03-01T12:58:24;18.57;;;14.53;;
12871;SDS011;6504;53.766;9.626;2023-03-01T13:01:18;18.27;;;14.20;;
12871;SDS011;6504;53.766;9.626;2023-03-01T13:04:06;18.87;;;14.80;;
12871;SDS011;6504;53.766;9.626;2023-03-01T13:06:43;19.90;;;15.30;;
12871;SDS011;6504;53.766;9.626;2023-03-01T13:09:22;20.77;;;15.07;;
12871;SDS011;6504;53.766;9.626;2023-03-01T13:11:57;19.37;;;13.90;;
12871;SDS011;6504;53.766;9.626;2023-03-01T13:14:43;18.73;;;14.47;;
12871;SDS011;6504;53.766;9.626;2023-03-01T13:17:32;19.77;;;13.53;;
12871;SDS011;6504;53.766;9.626;2023-03-01T13:20:15;20.37;;;14.43;;
12871;SDS011;6504;53.766;9.626;2023-03-01T13:22:45;18.83;;;13.73;;
12871;SDS011;6504;53.766;9.626;2023-03-01T13:25:21;18.53;;;13.27;;
12871;SDS011;6504;53.766;9.626;2023-03-01T13:28:35;19.13;;;14.47;;
12871;SDS011;6504;53.766;9.626;2023-03-01T13:31:10;16.23;;;12.37;;
12871;SDS011;6504;53.766;9.626;2023-03-01T13:33:58;16.93;;;12.60;;
12871;SDS011;6504;53.766;9.626;2023-03-01T13:36:45;19.80;;;14.47;;
12871;SDS011;6504;53.766;9.626;2023-03-01T13:39:27;16.83;;;13.27;;
12871;SDS011;6504;53.766;9.626;2023-03-01T13:42:00;18.20;;;13.90;;
12871;SDS011;6504;53.766;9.626;2023-03-01T13:44:30;20.67;;;14.90;;
12871;SDS011;6504;53.766;9.626;2023-03-01T13:47:03;18.60;;;13.43;;
12871;SDS011;6504;53.766;9.626;2023-03-01T13:49:45;19.43;;;14.00;;
12871;SDS011;6504;53.766;9.626;2023-03-01T13:52:34;17.00;;;13.90;;
12871;SDS011;6504;53.766;9.626;2023-03-01T13:55:13;20.57;;;14.83;;
12871;SDS011;6504;53.766;9.626;2023-03-01T13:57:47;18.90;;;14.57;;
12871;SDS011;6504;53.766;9.626;2023-03-01T14:00:28;19.10;;;14.27;;
12871;SDS011;6504;53.766;9.626;2023-03-01T14:03:11;22.13;;;14.70;;
12871;SDS011;6504;53.766;9.626;2023-03-01T14:05:41;21.60;;;15.60;;
12871;SDS011;6504;53.766;9.626;2023-03-01T14:08:21;21.13;;;15.10;;
12871;SDS011;6504;53.766;9.626;2023-03-01T14:10:59;17.37;;;14.50;;
12871;SDS011;6504;53.766;9.626;2023-03-01T14:14:02;20.77;;;15.70;;
12871;SDS011;6504;53.766;9.626;2023-03-01T14:16:42;19.77;;;15.10;;
12871;SDS011;6504;53.766;9.626;2023-03-01T14:19:16;17.93;;;13.97;;
12871;SDS011;6504;53.766;9.626;2023-03-01T14:21:59;21.30;;;15.03;;
12871;SDS011;6504;53.766;9.626;2023-03-01T14:24:38;19.63;;;14.63;;
12871;SDS011;6504;53.766;9.626;2023-03-01T14:27:12;22.73;;;15.83;;
12871;SDS011;6504;53.766;9.626;2023-03-01T14:29:42;22.80;;;16.03;;
12871;SDS011;6504;53.766;9.626;2023-03-01T14:32:12;21.27;;;15.43;;
12871;SDS011;6504;53.766;9.626;2023-03-01T14:34:47;20.50;;;15.73;;
12871;SDS011;6504;53.766;9.626;2023-03-01T14:37:18;23.73;;;16.60;;
12871;SDS011;6504;53.766;9.626;2023-03-01T14:39:48;23.60;;;16.03;;
12871;SDS011;6504;53.766;9.626;2023-03-01T14:42:17;20.63;;;15.53;;
12871;SDS011;6504;53.766;9.626;2023-03-01T14:44:48;23.87;;;17.37;;
12871;SDS011;6504;53.766;9.626;2023-03-01T14:47:25;21.90;;;16.23;;
12871;SDS011;6504;53.766;9.626;2023-03-01T14:49:57;21.83;;;15.03;;
12871;SDS011;6504;53.766;9.626;2023-03-01T14:52:29;25.67;;;16.50;;
12871;SDS011;6504;53.766;9.626;2023-03-01T14:55:02;22.77;;;17.07;;
12871;SDS011;6504;53.766;9.626;2023-03-01T14:57:33;24.03;;;17.20;;
12871;SDS011;6504;53.766;9.626;2023-03-01T15:00:05;23.03;;;17.60;;
12871;SDS011;6504;53.766;9.626;2023-03-01T15:02:34;23.70;;;17.93;;
12871;SDS011;6504;53.766;9.626;2023-03-01T15:05:05;25.00;;;17.90;;
12871;SDS011;6504;53.766;9.626;2023-03-01T15:07:36;22.97;;;17.97;;
12871;SDS011;6504;53.766;9.626;2023-03-01T15:10:14;25.57;;;17.97;;
12871;SDS011;6504;53.766;9.626;2023-03-01T15:12:47;26.37;;;17.27;;
12871;SDS011;6504;53.766;9.626;2023-03-01T15:15:21;21.97;;;15.77;;
12871;SDS011;6504;53.766;9.626;2023-03-01T15:17:58;22.07;;;16.47;;
12871;SDS011;6504;53.766;9.626;2023-03-01T15:20:28;24.67;;;16.43;;
12871;SDS011;6504;53.766;9.626;2023-03-01T15:23:01;25.80;;;17.73;;
12871;SDS011;6504;53.766;9.626;2023-03-01T15:25:31;25.23;;;17.60;;
12871;SDS011;6504;53.766;9.626;2023-03-01T15:28:00;24.40;;;17.63;;
12871;SDS011;6504;53.766;9.626;2023-03-01T15:30:31;23.70;;;16.97;;
12871;SDS011;6504;53.766;9.626;2023-03-01T15:33:17;25.30;;;17.90;;